createdAt,value
2017-11-01T00:00:38.768Z,28.3
2017-11-01T00:01:37.236Z,28.3
2017-11-01T00:02:38.887Z,28.3
2017-11-01T00:03:38.969Z,28.3
2017-11-01T00:04:39.077Z,28.3
2017-11-01T00:05:39.132Z,28.3
2017-11-01T00:06:38.833Z,28.3
2017-11-01T00:07:37.249Z,28.3
2017-11-01T00:08:37.291Z,28.3
2017-11-01T00:09:38.987Z,28.3
2017-11-01T00:10:39.331Z,28.3
2017-11-01T00:11:39.049Z,28.3
2017-11-01T00:12:39.397Z,28.3
2017-11-01T00:13:39.122Z,28.3
2017-11-01T00:14:37.563Z,28.3
2017-11-01T00:15:39.549Z,28.3
2017-11-01T00:16:38.006Z,28.3
2017-11-01T00:17:37.739Z,28.3
2017-11-01T00:18:38.019Z,28.3
2017-11-01T00:19:39.738Z,28.3
2017-11-01T00:20:39.468Z,28.3
2017-11-01T00:21:39.821Z,28.3
2017-11-01T00:22:38.036Z,28.3
2017-11-01T00:23:37.972Z,28.3
2017-11-01T00:24:38.086Z,28.3
2017-11-01T00:25:39.697Z,28.3
2017-11-01T00:26:38.399Z,28.3
2017-11-01T00:27:40.074Z,28.3
2017-11-01T00:28:40.120Z,28.2
2017-11-01T00:29:38.582Z,28.2
2017-11-01T00:30:38.594Z,28.3
2017-11-01T00:31:39.891Z,28.3
2017-11-01T00:32:38.605Z,28.3
2017-11-01T00:33:38.652Z,28.3
2017-11-01T00:34:38.426Z,28.3
2017-11-01T00:35:39.970Z,28.3
2017-11-01T00:36:40.081Z,28.3
2017-11-01T00:37:38.511Z,28.3
2017-11-01T00:38:38.549Z,28.2
2017-11-01T00:39:40.224Z,28.3
2017-11-01T00:40:38.687Z,28.3
2017-11-01T00:41:40.716Z,28.3
2017-11-01T00:42:40.712Z,28.3
2017-11-01T00:43:39.101Z,28.3
2017-11-01T00:44:40.431Z,28.2
2017-11-01T00:45:38.870Z,28.3
2017-11-01T00:46:40.750Z,28.3
2017-11-01T00:47:40.875Z,28.3
2017-11-01T00:48:39.062Z,28.3
2017-11-01T00:49:40.752Z,28.3
2017-11-01T00:50:41.135Z,28.2
2017-11-01T00:51:40.898Z,28.2
2017-11-01T00:52:41.266Z,28.2
2017-11-01T00:53:39.350Z,28.2
2017-11-01T00:54:41.390Z,28.2
2017-11-01T00:55:39.839Z,28.2
2017-11-01T00:56:39.533Z,28.2
2017-11-01T00:57:41.583Z,28.2
2017-11-01T00:58:39.674Z,28.2
2017-11-01T00:59:40.047Z,28.2
2017-11-01T01:00:41.724Z,28.2
2017-11-01T01:01:40.112Z,28.2
2017-11-01T01:02:41.491Z,28.2
2017-11-01T01:03:39.949Z,28.2
2017-11-01T01:04:41.654Z,28.2
2017-11-01T01:05:40.379Z,28.2
2017-11-01T01:06:40.171Z,28.2
2017-11-01T01:07:41.834Z,28.2
2017-11-01T01:08:42.186Z,28.2
2017-11-01T01:09:42.218Z,28.2
2017-11-01T01:10:41.954Z,28.2
2017-11-01T01:11:40.685Z,28.2
2017-11-01T01:12:42.353Z,28.2
2017-11-01T01:13:40.754Z,28.2
2017-11-01T01:14:42.494Z,28.2
2017-11-01T01:15:40.851Z,28.2
2017-11-01T01:16:41.000Z,28.2
2017-11-01T01:17:42.722Z,28.2
2017-11-01T01:18:42.371Z,28.2
2017-11-01T01:19:40.770Z,28.2
2017-11-01T01:20:42.420Z,28.2
2017-11-01T01:21:42.834Z,28.2
2017-11-01T01:22:42.860Z,28.2
2017-11-01T01:23:42.977Z,28.2
2017-11-01T01:24:41.067Z,28.2
2017-11-01T01:25:41.168Z,28.2
2017-11-01T01:26:41.248Z,28.2
2017-11-01T01:27:41.253Z,28.2
2017-11-01T01:28:42.964Z,28.2
2017-11-01T01:29:41.365Z,28.2
2017-11-01T01:30:43.375Z,28.2
2017-11-01T01:31:41.526Z,28.2
2017-11-01T01:32:41.509Z,28.2
2017-11-01T01:33:41.870Z,28.2
2017-11-01T01:34:43.186Z,28.2
2017-11-01T01:35:41.665Z,28.2
2017-11-01T01:36:43.676Z,28.2
2017-11-01T01:37:42.052Z,28.2
2017-11-01T01:38:41.825Z,28.2
2017-11-01T01:39:42.118Z,28.2
2017-11-01T01:40:43.475Z,28.2
2017-11-01T01:41:43.505Z,28.2
2017-11-01T01:42:43.975Z,28.2
2017-11-01T01:43:44.026Z,28.2
2017-11-01T01:44:42.533Z,28.2
2017-11-01T01:45:43.987Z,28.2
2017-11-01T01:46:42.382Z,28.3
2017-11-01T01:47:43.750Z,28.3
2017-11-01T01:48:42.144Z,28.2
2017-11-01T01:49:43.840Z,28.2
2017-11-01T01:50:43.911Z,28.2
2017-11-01T01:51:42.627Z,28.2
2017-11-01T01:52:43.914Z,28.2
2017-11-01T01:53:42.414Z,28.2
2017-11-01T01:54:44.431Z,28.2
2017-11-01T01:55:42.894Z,28.2
2017-11-01T01:56:42.600Z,28.2
2017-11-01T01:57:44.497Z,28.2
2017-11-01T01:58:42.953Z,28.2
2017-11-01T01:59:44.637Z,28.2
2017-11-01T02:00:44.951Z,28.2
2017-11-01T02:01:42.836Z,28.2
2017-11-01T02:02:44.510Z,28.2
2017-11-01T02:03:42.945Z,28.2
2017-11-01T02:04:44.576Z,28.2
2017-11-01T02:05:44.967Z,28.2
2017-11-01T02:06:45.031Z,28.2
2017-11-01T02:07:45.150Z,28.2
2017-11-01T02:08:43.435Z,28.2
2017-11-01T02:09:43.229Z,28.2
2017-11-01T02:10:43.350Z,28.2
2017-11-01T02:11:45.284Z,28.2
2017-11-01T02:12:45.344Z,28.2
2017-11-01T02:13:43.425Z,28.2
2017-11-01T02:14:45.104Z,28.2
2017-11-01T02:15:43.541Z,28.2
2017-11-01T02:16:43.904Z,28.1
2017-11-01T02:17:43.931Z,28.2
2017-11-01T02:18:45.226Z,28.2
2017-11-01T02:19:43.974Z,28.2
2017-11-01T02:20:43.631Z,28.2
2017-11-01T02:21:45.617Z,28.2
2017-11-01T02:22:43.721Z,28.2
2017-11-01T02:23:44.057Z,28.2
2017-11-01T02:24:43.878Z,28.2
2017-11-01T02:25:45.489Z,28.2
2017-11-01T02:26:43.921Z,28.2
2017-11-01T02:27:45.625Z,28.2
2017-11-01T02:28:44.046Z,28.2
2017-11-01T02:29:44.182Z,28.2
2017-11-01T02:30:44.187Z,28.2
2017-11-01T02:31:44.554Z,28.2
2017-11-01T02:32:44.313Z,28.2
2017-11-01T02:33:46.012Z,28.2
2017-11-01T02:34:46.405Z,28.2
2017-11-01T02:35:44.588Z,28.2
2017-11-01T02:36:44.927Z,28.2
2017-11-01T02:39:50.968Z,28.1
2017-11-01T02:40:50.959Z,28.1
2017-11-01T02:41:50.974Z,28.1
2017-11-01T02:42:52.887Z,28.1
2017-11-01T02:43:50.987Z,28.1
2017-11-01T02:44:51.071Z,28.1
2017-11-01T02:45:51.398Z,28.1
2017-11-01T02:46:51.476Z,28.1
2017-11-01T02:47:53.156Z,28.1
2017-11-01T02:48:51.541Z,28.1
2017-11-01T02:49:52.950Z,28.1
2017-11-01T02:50:51.654Z,28.2
2017-11-01T02:51:53.348Z,28.2
2017-11-01T02:52:53.398Z,28.2
2017-11-01T02:53:53.453Z,28.2
2017-11-01T02:54:53.168Z,28.1
2017-11-01T02:55:51.883Z,28.2
2017-11-01T02:56:51.671Z,28.2
2017-11-01T02:57:53.300Z,28.2
2017-11-01T02:58:52.086Z,28.2
2017-11-01T02:59:53.750Z,28.2
2017-11-01T03:00:53.737Z,28.2
2017-11-01T03:01:53.536Z,28.2
2017-11-01T03:02:51.946Z,28.2
2017-11-01T03:03:53.970Z,28.2
2017-11-01T03:04:53.685Z,28.2
2017-11-01T03:05:53.798Z,28.2
2017-11-01T03:06:54.125Z,28.2
2017-11-01T03:07:54.213Z,28.2
2017-11-01T03:08:52.343Z,28.2
2017-11-01T03:09:54.336Z,28.2
2017-11-01T03:10:54.334Z,28.2
2017-11-01T03:11:52.788Z,28.2
2017-11-01T03:12:52.895Z,28.2
2017-11-01T03:13:52.896Z,28.2
2017-11-01T03:14:54.600Z,28.2
2017-11-01T03:15:52.711Z,28.2
2017-11-01T03:16:54.648Z,28.2
2017-11-01T03:17:52.813Z,28.2
2017-11-01T03:18:53.126Z,28.2
2017-11-01T03:19:52.887Z,28.2
2017-11-01T03:20:54.871Z,28.2
2017-11-01T03:21:54.603Z,28.2
2017-11-01T03:22:54.624Z,28.2
2017-11-01T03:23:54.672Z,28.2
2017-11-01T03:24:54.777Z,28.2
2017-11-01T03:25:54.776Z,28.2
2017-11-01T03:26:55.210Z,28.2
2017-11-01T03:27:53.332Z,28.2
2017-11-01T03:28:53.333Z,28.1
2017-11-01T03:29:54.983Z,28.1
2017-11-01T03:30:55.039Z,28.1
2017-11-01T03:31:55.098Z,28.1
2017-11-01T03:32:55.080Z,28.1
2017-11-01T03:33:53.839Z,28.1
2017-11-01T03:34:55.220Z,28.1
2017-11-01T03:35:53.635Z,28.1
2017-11-01T03:36:53.685Z,28.1
2017-11-01T03:37:55.352Z,28.1
2017-11-01T03:38:54.141Z,28.1
2017-11-01T03:39:55.848Z,28.1
2017-11-01T03:40:55.907Z,28.1
2017-11-01T03:41:55.610Z,28.1
2017-11-01T03:42:55.993Z,28.1
2017-11-01T03:43:55.734Z,28.1
2017-11-01T03:44:54.571Z,28.1
2017-11-01T03:45:54.624Z,28.1
2017-11-01T03:46:55.974Z,28.1
2017-11-01T03:47:55.972Z,28.1
2017-11-01T03:48:54.447Z,28.2
2017-11-01T03:49:56.484Z,28.2
2017-11-01T03:50:54.850Z,28.2
2017-11-01T03:51:56.631Z,28.2
2017-11-01T03:52:55.070Z,28.1
2017-11-01T03:53:54.842Z,28.2
2017-11-01T03:54:54.901Z,28.2
2017-11-01T03:55:54.996Z,28.2
2017-11-01T03:56:56.926Z,28.2
2017-11-01T03:57:57.001Z,28.2
2017-11-01T03:58:56.999Z,28.2
2017-11-01T03:59:55.089Z,28.1
2017-11-01T04:00:56.792Z,28.1
2017-11-01T04:01:55.454Z,28.1
2017-11-01T04:02:56.834Z,28.1
2017-11-01T04:03:57.239Z,28.1
2017-11-01T04:04:55.376Z,28.2
2017-11-01T04:05:56.999Z,28.2
2017-11-01T04:06:57.379Z,28.2
2017-11-01T04:07:55.754Z,28.2
2017-11-01T04:08:55.503Z,28.2
2017-11-01T04:09:57.158Z,28.2
2017-11-01T04:10:55.946Z,28.1
2017-11-01T04:11:57.278Z,28.1
2017-11-01T04:12:57.417Z,28.1
2017-11-01T04:13:57.736Z,28.1
2017-11-01T04:14:56.134Z,28.1
2017-11-01T04:15:55.885Z,28.1
2017-11-01T04:16:55.951Z,28.1
2017-11-01T04:17:57.958Z,28.1
2017-11-01T04:18:57.999Z,28.1
2017-11-01T04:19:57.698Z,28.1
2017-11-01T04:20:56.132Z,28.1
2017-11-01T04:21:57.839Z,28.1
2017-11-01T04:22:57.902Z,28.1
2017-11-01T04:23:57.922Z,28.1
2017-11-01T04:24:58.259Z,28.1
2017-11-01T04:25:56.657Z,28.1
2017-11-01T04:26:58.439Z,28.1
2017-11-01T04:27:56.908Z,28.1
2017-11-01T04:28:58.634Z,28.1
2017-11-01T04:29:58.611Z,28.1
2017-11-01T04:30:56.690Z,28.1
2017-11-01T04:31:58.371Z,28.1
2017-11-01T04:32:58.377Z,28.2
2017-11-01T04:33:58.693Z,28.1
2017-11-01T04:34:58.721Z,28.1
2017-11-01T04:35:58.431Z,28.1
2017-11-01T04:36:56.808Z,28.1
2017-11-01T04:37:57.245Z,28.1
2017-11-01T04:38:58.872Z,28.1
2017-11-01T04:39:58.863Z,28.1
2017-11-01T04:40:58.574Z,28.1
2017-11-01T04:41:57.079Z,28.1
2017-11-01T04:42:59.011Z,28.1
2017-11-01T04:43:58.683Z,28.1
2017-11-01T04:44:59.105Z,28.1
2017-11-01T04:45:57.199Z,28.1
2017-11-01T04:46:58.897Z,28.1
2017-11-01T04:47:58.990Z,28.1
2017-11-01T04:48:59.000Z,28.1
2017-11-01T04:49:59.011Z,28.1
2017-11-01T04:50:57.795Z,28.1
2017-11-01T04:51:59.047Z,28.1
2017-11-01T04:52:59.389Z,28.1
2017-11-01T04:53:57.811Z,28.1
2017-11-01T04:54:59.518Z,28.1
2017-11-01T04:55:57.672Z,28.1
2017-11-01T04:56:59.359Z,28.1
2017-11-01T04:57:58.057Z,28.1
2017-11-01T04:58:59.486Z,28.1
2017-11-01T04:59:59.532Z,28.1
2017-11-01T05:00:59.898Z,28.1
2017-11-01T05:01:58.004Z,28.1
2017-11-01T05:02:59.693Z,28.1
2017-11-01T05:03:58.473Z,28.1
2017-11-01T05:05:00.105Z,28.1
2017-11-01T05:05:59.816Z,28.1
2017-11-01T05:06:59.934Z,28.1
2017-11-01T05:07:58.363Z,28.1
2017-11-01T05:08:58.335Z,28.1
2017-11-01T05:10:00.361Z,28.1
2017-11-01T05:11:00.101Z,28.1
2017-11-01T05:12:00.130Z,28.1
2017-11-01T05:13:00.492Z,28.1
2017-11-01T05:13:58.838Z,28.1
2017-11-01T05:14:58.665Z,28.1
2017-11-01T05:16:00.598Z,28.1
2017-11-01T05:17:00.682Z,28.1
2017-11-01T05:17:59.081Z,28.1
2017-11-01T05:18:59.088Z,28.1
2017-11-01T05:20:00.780Z,28.1
2017-11-01T05:20:59.224Z,28.1
2017-11-01T05:21:59.263Z,28.1
2017-11-01T05:22:58.985Z,28.1
2017-11-01T05:23:59.299Z,28.1
2017-11-01T05:25:00.641Z,28.1
2017-11-01T05:26:00.676Z,28.1
2017-11-01T05:26:59.129Z,28.1
2017-11-01T05:27:59.429Z,28.1
2017-11-01T05:28:59.509Z,28.1
2017-11-01T05:30:01.238Z,28.1
2017-11-01T05:31:00.903Z,28.1
2017-11-01T05:31:59.689Z,28.1
2017-11-01T05:32:59.338Z,28.1
2017-11-01T05:33:59.735Z,28.1
2017-11-01T05:34:59.419Z,28.1
2017-11-01T05:36:01.114Z,28.1
2017-11-01T05:36:59.846Z,28.1
2017-11-01T05:37:59.605Z,28.1
2017-11-01T05:39:01.598Z,28.1
2017-11-01T05:39:59.967Z,28.1
2017-11-01T05:40:59.734Z,28.1
2017-11-01T05:42:01.421Z,28.1
2017-11-01T05:43:01.804Z,28.1
2017-11-01T05:43:59.930Z,28.1
2017-11-01T05:45:01.545Z,28.1
2017-11-01T05:46:01.564Z,28.1
2017-11-01T05:46:59.979Z,28.1
2017-11-01T05:48:00.440Z,28.1
2017-11-01T05:49:01.753Z,28.1
2017-11-01T05:50:00.062Z,28.1
2017-11-01T05:51:02.133Z,28.1
2017-11-01T05:52:00.229Z,28.1
2017-11-01T05:53:00.294Z,28.1
2017-11-01T05:54:02.299Z,28
2017-11-01T05:55:02.132Z,28
2017-11-01T05:56:00.464Z,28
2017-11-01T05:57:02.408Z,28
2017-11-01T05:58:02.484Z,28.1
2017-11-01T05:59:02.106Z,28.1
2017-11-01T06:00:00.632Z,28.1
2017-11-01T06:01:02.578Z,28.1
2017-11-01T06:02:01.028Z,28.1
2017-11-01T06:03:00.807Z,28.1
2017-11-01T06:04:01.222Z,28.1
2017-11-01T06:05:00.948Z,28.1
2017-11-01T06:06:02.852Z,28.1
2017-11-01T06:07:00.933Z,28
2017-11-01T06:08:02.641Z,28.1
2017-11-01T06:09:02.717Z,28.1
2017-11-01T06:10:01.428Z,28.1
2017-11-01T06:11:01.508Z,28.1
2017-11-01T06:12:02.888Z,28.1
2017-11-01T06:13:01.562Z,28.1
2017-11-01T06:14:01.354Z,28.1
2017-11-01T06:15:01.772Z,28.1
2017-11-01T06:16:01.487Z,28.1
2017-11-01T06:17:03.420Z,28.1
2017-11-01T06:18:03.101Z,28.1
2017-11-01T06:19:03.464Z,28.1
2017-11-01T06:20:01.967Z,28.1
2017-11-01T06:21:03.536Z,28.1
2017-11-01T06:22:01.958Z,28.1
2017-11-01T06:23:03.662Z,28.1
2017-11-01T06:24:01.782Z,28.1
2017-11-01T06:25:02.175Z,28.1
2017-11-01T06:26:03.885Z,28.1
2017-11-01T06:27:03.965Z,28.1
2017-11-01T06:28:02.455Z,28.1
2017-11-01T06:29:02.150Z,28.1
2017-11-01T06:30:03.867Z,28.1
2017-11-01T06:31:04.174Z,28
2017-11-01T06:32:03.976Z,28
2017-11-01T06:33:02.733Z,28.1
2017-11-01T06:34:02.783Z,28.1
2017-11-01T06:35:04.183Z,28.1
2017-11-01T06:36:04.545Z,28.1
2017-11-01T06:37:02.673Z,28.1
2017-11-01T06:38:04.580Z,28.1
2017-11-01T06:39:04.273Z,28.1
2017-11-01T06:40:04.706Z,28.1
2017-11-01T06:41:03.172Z,28.1
2017-11-01T06:42:04.526Z,28.1
2017-11-01T06:43:04.602Z,28.1
2017-11-01T06:44:03.046Z,28.1
2017-11-01T06:45:03.345Z,28.1
2017-11-01T06:46:04.964Z,28.1
2017-11-01T06:47:04.627Z,28.1
2017-11-01T06:48:04.758Z,28.1
2017-11-01T06:49:03.336Z,28.1
2017-11-01T06:50:03.510Z,28.1
2017-11-01T06:51:03.326Z,28.1
2017-11-01T06:52:05.326Z,28.1
2017-11-01T06:53:03.753Z,28.1
2017-11-01T06:54:03.557Z,28.1
2017-11-01T06:55:03.696Z,28.1
2017-11-01T06:56:05.664Z,28
2017-11-01T06:57:05.632Z,28.1
2017-11-01T06:58:03.777Z,28.1
2017-11-01T06:59:04.093Z,28.1
2017-11-01T07:00:05.754Z,28.1
2017-11-01T07:01:03.870Z,28.1
2017-11-01T07:02:05.592Z,28.1
2017-11-01T07:03:05.610Z,28.1
2017-11-01T07:04:04.066Z,28.1
2017-11-01T07:05:05.810Z,28.1
2017-11-01T07:06:06.099Z,28.1
2017-11-01T07:07:05.837Z,28.1
2017-11-01T07:08:04.656Z,28.1
2017-11-01T07:09:06.181Z,28
2017-11-01T07:10:06.290Z,28.1
2017-11-01T07:11:04.741Z,28.1
2017-11-01T07:12:04.719Z,28.1
2017-11-01T07:13:04.516Z,28.1
2017-11-01T07:14:06.457Z,28.1
2017-11-01T07:15:04.620Z,28.1
2017-11-01T07:16:04.946Z,28.1
2017-11-01T07:17:05.000Z,28.1
2017-11-01T07:18:06.722Z,28.1
2017-11-01T07:19:06.358Z,28.1
2017-11-01T07:20:05.207Z,28.1
2017-11-01T07:21:06.564Z,28.1
2017-11-01T07:22:06.868Z,28.1
2017-11-01T07:23:05.030Z,28.1
2017-11-01T07:24:05.314Z,28.1
2017-11-01T07:25:05.466Z,28.1
2017-11-01T07:26:05.456Z,28.1
2017-11-01T07:27:05.177Z,28.1
2017-11-01T07:28:05.557Z,28.1
2017-11-01T07:29:07.242Z,28.1
2017-11-01T07:30:07.365Z,28.1
2017-11-01T07:31:07.447Z,28.1
2017-11-01T07:32:05.571Z,28.1
2017-11-01T07:33:07.601Z,28.1
2017-11-01T07:34:05.736Z,28.1
2017-11-01T07:35:07.665Z,28.1
2017-11-01T07:36:06.094Z,28.1
2017-11-01T07:37:07.827Z,28.1
2017-11-01T07:38:05.961Z,28.1
2017-11-01T07:39:05.998Z,28.1
2017-11-01T07:40:06.354Z,28.1
2017-11-01T07:41:08.000Z,28.1
2017-11-01T07:42:07.750Z,28.1
2017-11-01T07:43:06.482Z,28.1
2017-11-01T07:44:06.473Z,28.1
2017-11-01T07:45:07.880Z,28.1
2017-11-01T07:46:08.226Z,28.1
2017-11-01T07:47:06.458Z,28.1
2017-11-01T07:48:07.973Z,28.1
2017-11-01T07:49:06.714Z,28.1
2017-11-01T07:50:06.445Z,28.1
2017-11-01T07:51:08.504Z,28.1
2017-11-01T07:52:08.174Z,28.1
2017-11-01T07:53:06.615Z,28.1
2017-11-01T07:54:06.636Z,28.1
2017-11-01T07:55:08.267Z,28.1
2017-11-01T07:56:08.627Z,28.1
2017-11-01T07:57:06.964Z,28.1
2017-11-01T07:58:08.404Z,28.1
2017-11-01T07:59:06.877Z,28.1
2017-11-01T08:00:08.522Z,28.2
2017-11-01T08:01:07.251Z,28.2
2017-11-01T08:02:08.978Z,28.2
2017-11-01T08:03:07.127Z,28.2
2017-11-01T08:04:07.430Z,28.2
2017-11-01T08:05:09.061Z,28.2
2017-11-01T08:06:07.489Z,28.1
2017-11-01T08:07:08.939Z,28.1
2017-11-01T08:08:09.018Z,28.1
2017-11-01T08:09:09.043Z,28.1
2017-11-01T08:10:07.539Z,28.2
2017-11-01T08:11:07.836Z,28.2
2017-11-01T08:12:09.247Z,28.2
2017-11-01T08:13:09.235Z,28.2
2017-11-01T08:14:08.051Z,28.2
2017-11-01T08:15:09.786Z,28.2
2017-11-01T08:16:09.580Z,28.2
2017-11-01T08:17:08.259Z,28.2
2017-11-01T08:18:07.990Z,28.2
2017-11-01T08:19:08.154Z,28.2
2017-11-01T08:20:08.146Z,28.2
2017-11-01T08:21:10.117Z,28.2
2017-11-01T08:22:10.198Z,28.2
2017-11-01T08:23:08.582Z,28.3
2017-11-01T08:24:08.721Z,28.3
2017-11-01T08:25:10.380Z,28.3
2017-11-01T08:26:08.780Z,28.3
2017-11-01T08:27:10.511Z,28.3
2017-11-01T08:28:08.658Z,28.3
2017-11-01T08:29:10.683Z,28.3
2017-11-01T08:30:10.629Z,28.3
2017-11-01T08:31:08.767Z,28.4
2017-11-01T08:32:10.773Z,28.4
2017-11-01T08:33:08.789Z,28.5
2017-11-01T08:34:10.855Z,28.5
2017-11-01T08:35:09.241Z,28.5
2017-11-01T08:36:09.358Z,28.5
2017-11-01T08:37:09.047Z,28.5
2017-11-01T08:38:11.101Z,28.5
2017-11-01T08:39:09.200Z,28.5
2017-11-01T08:40:10.922Z,28.6
2017-11-01T08:41:09.620Z,28.6
2017-11-01T08:42:11.276Z,28.6
2017-11-01T08:43:09.783Z,28.5
2017-11-01T08:44:11.131Z,28.6
2017-11-01T08:45:09.849Z,28.5
2017-11-01T08:46:11.626Z,28.5
2017-11-01T08:47:09.797Z,28.5
2017-11-01T08:48:09.793Z,28.5
2017-11-01T08:49:11.589Z,28.5
2017-11-01T08:50:15.734Z,28.5
2017-11-01T08:51:11.541Z,28.5
2017-11-01T08:52:10.223Z,28.5
2017-11-01T08:53:10.300Z,28.5
2017-11-01T08:54:12.002Z,28.5
2017-11-01T08:55:11.803Z,28.5
2017-11-01T08:56:10.229Z,28.5
2017-11-01T08:57:11.910Z,28.5
2017-11-01T08:58:10.597Z,28.4
2017-11-01T08:59:12.339Z,28.4
2017-11-01T09:00:10.790Z,28.4
2017-11-01T09:01:12.149Z,28.4
2017-11-01T09:02:10.602Z,28.4
2017-11-01T09:03:12.345Z,28.5
2017-11-01T09:04:10.694Z,28.5
2017-11-01T09:05:12.439Z,28.5
2017-11-01T09:06:10.865Z,28.5
2017-11-01T09:07:10.926Z,28.5
2017-11-01T09:08:11.176Z,28.5
2017-11-01T09:09:12.942Z,28.5
2017-11-01T09:10:11.280Z,28.5
2017-11-01T09:11:13.009Z,28.5
2017-11-01T09:12:12.781Z,28.4
2017-11-01T09:13:11.279Z,28.5
2017-11-01T09:14:12.876Z,28.5
2017-11-01T09:15:11.558Z,28.5
2017-11-01T09:16:11.380Z,28.5
2017-11-01T09:17:11.744Z,28.5
2017-11-01T09:18:11.781Z,28.5
2017-11-01T09:19:13.447Z,28.5
2017-11-01T09:20:13.493Z,28.5
2017-11-01T09:21:11.637Z,28.5
2017-11-01T09:22:13.577Z,28.6
2017-11-01T09:23:13.657Z,28.6
2017-11-01T09:24:12.080Z,28.7
2017-11-01T09:25:12.120Z,28.8
2017-11-01T09:26:13.835Z,28.9
2017-11-01T09:27:12.274Z,28.9
2017-11-01T09:28:12.384Z,29
2017-11-01T09:29:13.794Z,29
2017-11-01T09:30:13.865Z,29
2017-11-01T09:31:14.174Z,29
2017-11-01T09:32:12.354Z,29
2017-11-01T09:33:12.722Z,29
2017-11-01T09:34:14.366Z,29
2017-11-01T09:35:12.502Z,29
2017-11-01T09:36:12.512Z,29
2017-11-01T09:37:12.866Z,29
2017-11-01T09:38:12.663Z,29.1
2017-11-01T09:39:14.276Z,29.1
2017-11-01T09:40:14.397Z,29.1
2017-11-01T09:41:14.727Z,29.1
2017-11-01T09:42:14.780Z,29.1
2017-11-01T09:43:13.130Z,29.1
2017-11-01T09:44:14.563Z,29.1
2017-11-01T09:45:14.918Z,29.3
2017-11-01T09:46:13.038Z,29.3
2017-11-01T09:47:13.392Z,29.4
2017-11-01T09:48:13.178Z,29.4
2017-11-01T09:49:13.280Z,29.4
2017-11-01T09:50:13.274Z,29.4
2017-11-01T09:51:14.908Z,29.4
2017-11-01T09:52:13.335Z,29.5
2017-11-01T09:53:13.686Z,29.5
2017-11-01T09:54:15.323Z,29.6
2017-11-01T09:55:15.118Z,29.6
2017-11-01T09:56:15.473Z,29.6
2017-11-01T09:57:15.228Z,29.6
2017-11-01T09:58:13.980Z,29.7
2017-11-01T09:59:13.776Z,29.6
2017-11-01T10:00:14.044Z,29.6
2017-11-01T10:01:14.051Z,29.6
2017-11-01T10:02:13.866Z,29.6
2017-11-01T10:03:15.869Z,29.6
2017-11-01T10:04:15.530Z,29.7
2017-11-01T10:05:15.949Z,29.7
2017-11-01T10:06:14.390Z,29.7
2017-11-01T10:07:14.164Z,29.8
2017-11-01T10:08:16.102Z,29.8
2017-11-01T10:09:14.504Z,29.8
2017-11-01T10:10:15.912Z,29.8
2017-11-01T10:11:14.701Z,29.8
2017-11-01T10:12:16.012Z,29.8
2017-11-01T10:13:14.510Z,29.8
2017-11-01T10:14:14.529Z,29.8
2017-11-01T10:15:16.217Z,29.8
2017-11-01T10:16:14.616Z,29.8
2017-11-01T10:17:14.943Z,29.8
2017-11-01T10:18:14.953Z,29.8
2017-11-01T10:19:14.774Z,29.9
2017-11-01T10:20:15.133Z,29.8
2017-11-01T10:21:15.133Z,29.9
2017-11-01T10:22:16.873Z,29.9
2017-11-01T10:23:15.039Z,29.9
2017-11-01T10:24:15.356Z,30
2017-11-01T10:25:17.130Z,30
2017-11-01T10:26:15.531Z,30.1
2017-11-01T10:27:15.228Z,30.1
2017-11-01T10:28:16.917Z,30.1
2017-11-01T10:29:17.343Z,30.2
2017-11-01T10:30:17.068Z,30.2
2017-11-01T10:31:15.730Z,30.1
2017-11-01T10:32:15.807Z,30.1
2017-11-01T10:33:15.802Z,30.1
2017-11-01T10:34:17.222Z,30.1
2017-11-01T10:35:15.971Z,30.1
2017-11-01T10:36:16.129Z,30.1
2017-11-01T10:37:15.837Z,30
2017-11-01T10:38:16.245Z,30.1
2017-11-01T10:39:16.142Z,30.1
2017-11-01T10:40:15.944Z,30.1
2017-11-01T10:41:17.619Z,30.2
2017-11-01T10:42:16.422Z,30.2
2017-11-01T10:43:18.098Z,30.3
2017-11-01T10:44:17.794Z,30.3
2017-11-01T10:45:16.561Z,30.3
2017-11-01T10:46:17.906Z,30.3
2017-11-01T10:47:18.302Z,30.3
2017-11-01T10:48:18.038Z,30.3
2017-11-01T10:49:16.395Z,30.3
2017-11-01T10:50:18.064Z,30.3
2017-11-01T10:51:16.518Z,30.3
2017-11-01T10:52:18.505Z,30.3
2017-11-01T10:53:18.158Z,30.3
2017-11-01T10:54:18.239Z,30.3
2017-11-01T10:55:17.030Z,30.3
2017-11-01T10:56:18.633Z,30.3
2017-11-01T10:57:18.330Z,30.2
2017-11-01T10:58:18.426Z,30.3
2017-11-01T10:59:18.813Z,30.3
2017-11-01T11:00:17.284Z,30.3
2017-11-01T11:01:18.936Z,30.4
2017-11-01T11:02:17.366Z,30.4
2017-11-01T11:03:17.039Z,30.6
2017-11-01T11:04:19.032Z,31
2017-11-01T11:05:18.696Z,31.7
2017-11-01T11:06:19.098Z,32.4
2017-11-01T11:07:18.735Z,33
2017-11-01T11:08:17.201Z,33.6
2017-11-01T11:09:17.297Z,34.2
2017-11-01T11:10:17.393Z,34.7
2017-11-01T11:11:19.033Z,35
2017-11-01T11:12:19.133Z,35.3
2017-11-01T11:13:17.543Z,35.6
2017-11-01T11:14:19.598Z,35.8
2017-11-01T11:15:19.281Z,35.9
2017-11-01T11:16:19.668Z,36
2017-11-01T11:17:18.058Z,35.9
2017-11-01T11:18:18.102Z,35.9
2017-11-01T11:19:18.163Z,36
2017-11-01T11:20:19.813Z,36
2017-11-01T11:21:17.911Z,35.9
2017-11-01T11:22:19.528Z,36
2017-11-01T11:23:20.011Z,36
2017-11-01T11:24:18.086Z,36.1
2017-11-01T11:25:20.073Z,36.2
2017-11-01T11:26:19.634Z,36.2
2017-11-01T11:27:18.432Z,36.3
2017-11-01T11:28:18.447Z,36.3
2017-11-01T11:29:19.804Z,35.9
2017-11-01T11:30:20.184Z,35.3
2017-11-01T11:31:19.913Z,34.6
2017-11-01T11:32:20.003Z,34.1
2017-11-01T11:33:20.375Z,33.6
2017-11-01T11:34:20.146Z,33.2
2017-11-01T11:35:20.526Z,32.8
2017-11-01T11:36:18.684Z,32.5
2017-11-01T11:37:20.375Z,32.2
2017-11-01T11:38:20.415Z,31.9
2017-11-01T11:39:19.122Z,31.7
2017-11-01T11:40:19.279Z,31.5
2017-11-01T11:41:21.016Z,31.4
2017-11-01T11:42:20.725Z,31.2
2017-11-01T11:43:19.115Z,31
2017-11-01T11:44:21.097Z,30.9
2017-11-01T11:45:19.155Z,30.8
2017-11-01T11:46:19.201Z,30.8
2017-11-01T11:47:19.546Z,30.7
2017-11-01T11:48:19.667Z,30.6
2017-11-01T11:49:21.220Z,30.5
2017-11-01T11:50:21.290Z,30.5
2017-11-01T11:51:21.376Z,30.4
2017-11-01T11:52:19.491Z,30.3
2017-11-01T11:53:21.217Z,30.3
2017-11-01T11:54:21.528Z,30.2
2017-11-01T11:55:21.630Z,30.2
2017-11-01T11:56:20.031Z,30.2
2017-11-01T11:57:21.413Z,30.1
2017-11-01T11:58:21.480Z,30.1
2017-11-01T11:59:19.932Z,30.1
2017-11-01T12:00:20.260Z,30
2017-11-01T12:01:21.604Z,30
2017-11-01T12:02:21.657Z,30
2017-11-01T12:03:20.092Z,29.9
2017-11-01T12:04:22.122Z,29.9
2017-11-01T12:05:20.601Z,29.9
2017-11-01T12:06:21.907Z,29.9
2017-11-01T12:07:20.355Z,29.9
2017-11-01T12:08:22.275Z,29.8
2017-11-01T12:09:22.363Z,29.8
2017-11-01T12:10:22.051Z,29.8
2017-11-01T12:11:22.146Z,29.8
2017-11-01T12:12:22.489Z,29.7
2017-11-01T12:13:22.250Z,29.7
2017-11-01T12:14:20.969Z,29.7
2017-11-01T12:15:20.689Z,29.7
2017-11-01T12:16:22.740Z,29.7
2017-11-01T12:17:22.852Z,29.7
2017-11-01T12:18:21.228Z,29.6
2017-11-01T12:19:20.969Z,29.6
2017-11-01T12:20:21.292Z,29.6
2017-11-01T12:21:21.016Z,29.6
2017-11-01T12:22:23.004Z,29.6
2017-11-01T12:23:21.524Z,29.6
2017-11-01T12:24:22.859Z,29.6
2017-11-01T12:25:21.495Z,29.6
2017-11-01T12:26:23.163Z,29.5
2017-11-01T12:27:22.948Z,29.5
2017-11-01T12:28:23.387Z,29.5
2017-11-01T12:29:21.476Z,29.5
2017-11-01T12:30:21.809Z,29.5
2017-11-01T12:31:21.530Z,29.5
2017-11-01T12:32:21.899Z,29.5
2017-11-01T12:33:21.988Z,29.5
2017-11-01T12:34:22.021Z,29.5
2017-11-01T12:35:21.689Z,29.5
2017-11-01T12:36:21.764Z,29.5
2017-11-01T12:37:23.739Z,29.4
2017-11-01T12:38:23.445Z,29.5
2017-11-01T12:39:22.183Z,29.5
2017-11-01T12:40:21.976Z,29.4
2017-11-01T12:41:23.924Z,29.5
2017-11-01T12:42:24.103Z,29.4
2017-11-01T12:43:22.515Z,29.4
2017-11-01T12:44:22.440Z,29.4
2017-11-01T12:45:22.558Z,29.4
2017-11-01T12:46:24.228Z,29.4
2017-11-01T12:47:24.272Z,29.4
2017-11-01T12:48:24.027Z,29.4
2017-11-01T12:49:22.525Z,29.4
2017-11-01T12:50:22.500Z,29.4
2017-11-01T12:51:24.435Z,29.4
2017-11-01T12:52:24.573Z,29.4
2017-11-01T12:53:24.558Z,29.4
2017-11-01T12:54:24.650Z,29.4
2017-11-01T12:55:24.782Z,29.4
2017-11-01T12:56:24.769Z,29.4
2017-11-01T12:57:22.866Z,29.4
2017-11-01T12:58:22.924Z,29.4
2017-11-01T12:59:23.212Z,29.4
2017-11-01T13:00:24.946Z,29.3
2017-11-01T13:01:25.031Z,29.4
2017-11-01T13:02:24.822Z,29.4
2017-11-01T13:03:23.576Z,29.3
2017-11-01T13:04:25.202Z,29.4
2017-11-01T13:05:23.343Z,29.3
2017-11-01T13:06:25.347Z,29.3
2017-11-01T13:07:25.048Z,29.3
2017-11-01T13:08:25.048Z,29.3
2017-11-01T13:09:25.056Z,29.3
2017-11-01T13:10:25.434Z,29.3
2017-11-01T13:11:25.203Z,29.3
2017-11-01T13:12:25.586Z,29.3
2017-11-01T13:13:25.369Z,29.3
2017-11-01T13:14:24.046Z,29.3
2017-11-01T13:15:24.146Z,29.3
2017-11-01T13:16:24.264Z,29.3
2017-11-01T13:17:24.037Z,29.3
2017-11-01T13:18:25.624Z,29.3
2017-11-01T13:19:25.680Z,29.3
2017-11-01T13:20:24.404Z,29.3
2017-11-01T13:21:26.103Z,29.3
2017-11-01T13:22:25.869Z,29.3
2017-11-01T13:23:24.290Z,29.3